Time;durP1;ratioP1;P1;durP2;ratioP2;P2;SDS_P1;SDS_P2;PMS_P1;PMS_P2;Temp;Humidity;BMP_temperature;BMP_pressure;BME280_temperature;BME280_humidity;BME280_pressure;Samples;Min_cycle;Max_cycle;Signal;HPM_P1;HPM_P2
2023/02/10 00:02:21;;;;;;;15.27;9.65;;;;;;;-8.77;100.00;96547.31;6169679;23;20032;-72
2023/02/10 00:04:47;;;;;;;26.58;15.98;;;;;;;-8.77;100.00;96550.66;6170954;23;20028;-72
2023/02/10 00:07:12;;;;;;;15.55;8.82;;;;;;;-8.75;100.00;96548.13;6170388;23;20013;-74
2023/02/10 00:09:38;;;;;;;17.70;11.70;;;;;;;-8.52;100.00;96556.25;6167857;23;20016;-73
2023/02/10 00:12:03;;;;;;;14.50;8.70;;;;;;;-8.73;100.00;96551.47;6170551;23;20005;-72
2023/02/10 00:14:30;;;;;;;17.15;7.72;;;;;;;-8.67;100.00;96546.38;6169372;23;20574;-73
2023/02/10 00:16:56;;;;;;;14.38;7.90;;;;;;;-8.54;100.00;96549.59;6170882;23;20016;-72
2023/02/10 00:19:24;;;;;;;13.40;8.00;;;;;;;-8.70;100.00;96541.41;6170007;23;20084;-72
2023/02/10 00:21:50;;;;;;;17.75;8.82;;;;;;;-8.79;100.00;96551.50;6170484;23;20355;-72
2023/02/10 00:24:15;;;;;;;56.35;21.60;;;;;;;-8.73;100.00;96554.78;6170145;23;20005;-72
2023/02/10 00:26:41;;;;;;;99.90;38.45;;;;;;;-8.89;100.00;96552.47;6170148;23;20388;-72
2023/02/10 00:29:06;;;;;;;42.22;18.40;;;;;;;-9.28;100.00;96541.13;6170341;23;20009;-74
2023/02/10 00:31:32;;;;;;;29.00;13.30;;;;;;;-9.35;100.00;96540.34;6169240;23;20016;-72
2023/02/10 00:33:57;;;;;;;25.25;12.50;;;;;;;-9.37;100.00;96542.03;6170382;23;20005;-73
2023/02/10 00:36:24;;;;;;;26.23;12.52;;;;;;;-9.34;100.00;96544.50;6169373;23;20022;-75
2023/02/10 00:38:50;;;;;;;27.85;16.58;;;;;;;-9.34;100.00;96536.19;6170501;23;20006;-72
2023/02/10 00:41:18;;;;;;;40.38;20.70;;;;;;;-9.32;100.00;96540.34;6169553;23;20534;-74
2023/02/10 00:43:44;;;;;;;36.03;19.08;;;;;;;-9.17;100.00;96531.81;6169355;23;20063;-73
2023/02/10 00:46:10;;;;;;;57.15;26.90;;;;;;;-9.07;100.00;96537.59;6170074;23;20463;-73
2023/02/10 00:48:36;;;;;;;57.35;25.30;;;;;;;-9.13;100.00;96530.97;6169637;23;20075;-74
2023/02/10 00:51:02;;;;;;;41.03;19.73;;;;;;;-9.24;100.00;96525.19;6170689;23;20001;-73
2023/02/10 00:53:27;;;;;;;44.22;23.13;;;;;;;-9.18;100.00;96523.47;6168609;23;20080;-73
2023/02/10 00:55:53;;;;;;;55.55;29.45;;;;;;;-9.09;100.00;96520.06;6170894;23;20706;-73
2023/02/10 00:58:18;;;;;;;33.00;17.90;;;;;;;-9.17;100.00;96520.13;6167898;23;20055;-74
2023/02/10 01:00:44;;;;;;;28.67;15.57;;;;;;;-9.14;100.00;96507.56;6169920;23;20407;-73
2023/02/10 01:03:09;;;;;;;27.33;15.25;;;;;;;-8.94;100.00;96516.56;6171317;23;20044;-73
2023/02/10 01:05:35;;;;;;;26.27;15.05;;;;;;;-8.86;100.00;96515.63;6171490;23;20015;-73
2023/02/10 01:08:00;;;;;;;27.48;14.55;;;;;;;-8.81;100.00;96506.38;6171780;23;20016;-73
2023/02/10 01:10:26;;;;;;;22.67;11.63;;;;;;;-9.31;100.00;96506.06;6171708;23;20009;-75
2023/02/10 01:12:51;;;;;;;17.55;11.00;;;;;;;-9.39;100.00;96503.63;6172204;23;20348;-76
2023/02/10 01:15:17;;;;;;;16.88;9.93;;;;;;;-9.10;100.00;96495.81;6171234;23;20015;-74
2023/02/10 01:17:42;;;;;;;18.15;10.73;;;;;;;-8.96;100.00;96500.69;6172279;23;20013;-74
2023/02/10 01:20:08;;;;;;;20.20;10.90;;;;;;;-8.96;100.00;96504.03;6170668;23;20439;-73
2023/02/10 01:22:34;;;;;;;19.80;11.90;;;;;;;-8.98;100.00;96494.84;6168867;23;20008;-73
2023/02/10 01:25:00;;;;;;;24.45;13.57;;;;;;;-9.13;100.00;96471.63;6167489;23;20020;-74
2023/02/10 01:27:25;;;;;;;26.23;13.63;;;;;;;-8.96;100.00;96495.69;6162258;23;20031;-74
2023/02/10 01:29:51;;;;;;;36.72;16.67;;;;;;;-9.02;100.00;96490.75;6169533;23;20028;-75
2023/02/10 01:32:17;;;;;;;33.67;16.58;;;;;;;-8.80;100.00;96479.63;6168217;23;20092;-74
2023/02/10 01:34:42;;;;;;;22.65;11.60;;;;;;;-8.58;100.00;96486.03;6168810;23;20465;-73
2023/02/10 01:37:07;;;;;;;32.08;15.15;;;;;;;-8.95;100.00;96487.28;6168192;23;20897;-74
2023/02/10 01:39:33;;;;;;;75.53;30.00;;;;;;;-8.96;100.00;96481.47;6169462;23;20024;-74
2023/02/10 01:41:58;;;;;;;67.15;27.27;;;;;;;-8.98;100.00;96482.31;6170278;23;20017;-74
2023/02/10 01:44:27;;;;;;;33.95;13.95;;;;;;;-8.61;100.00;96478.53;6170428;23;20009;-74
2023/02/10 01:46:53;;;;;;;52.05;21.73;;;;;;;-8.83;100.00;96472.13;6170436;23;20013;-74
2023/02/10 01:49:22;;;;;;;65.45;24.73;;;;;;;-8.90;100.00;96478.06;6170578;23;20418;-73
2023/02/10 01:52:00;;;;;;;79.17;29.30;;;;;;;-8.99;100.00;96471.47;6170506;23;20009;-74
2023/02/10 01:54:51;;;;;;;69.82;25.00;;;;;;;-8.86;100.00;96474.69;6167740;23;20009;-73
2023/02/10 01:57:17;;;;;;;79.55;30.38;;;;;;;-9.04;100.00;96467.34;6171137;23;20013;-73
2023/02/10 01:59:42;;;;;;;46.35;17.30;;;;;;;-8.84;100.00;96472.97;6170617;23;20047;-74
2023/02/10 02:02:09;;;;;;;48.85;21.10;;;;;;;-9.00;100.00;96462.28;6169151;23;20009;-73
2023/02/10 02:04:50;;;;;;;34.85;15.20;;;;;;;-9.17;100.00;96462.47;6170766;23;20324;-74
2023/02/10 02:07:17;;;;;;;40.83;19.83;;;;;;;-9.20;100.00;96459.16;6171370;23;20400;-75
2023/02/10 02:09:43;;;;;;;22.35;12.20;;;;;;;-8.98;100.00;96462.25;6171408;23;20519;-74
2023/02/10 02:12:10;;;;;;;30.63;14.68;;;;;;;-9.11;100.00;96454.88;6171398;23;20059;-74
2023/02/10 02:14:43;;;;;;;31.38;14.93;;;;;;;-9.04;100.00;96457.31;6169534;23;20027;-74
2023/02/10 02:17:08;;;;;;;25.67;12.05;;;;;;;-8.86;100.00;96445.38;6169846;23;20013;-75
2023/02/10 02:23:33;;;;;;;40.30;18.55;;;;;;;-9.43;100.00;96444.34;6171363;23;20027;-76
2023/02/10 02:26:38;;;;;;;18.92;10.43;;;;;;;-8.92;100.00;96437.94;6171860;23;20056;-75
2023/02/10 02:29:31;;;;;;;20.85;11.27;;;;;;;-8.98;100.00;96437.16;6168556;23;20013;-75
2023/02/10 02:32:01;;;;;;;20.92;10.32;;;;;;;-9.35;100.00;96440.09;6171415;23;20017;-75
2023/02/10 02:34:40;;;;;;;17.92;10.05;;;;;;;-8.90;100.00;96438.75;6170814;23;20016;-75
2023/02/10 02:37:14;;;;;;;17.17;9.50;;;;;;;-8.71;100.00;96440.19;6168911;23;20005;-76
2023/02/10 02:39:41;;;;;;;18.08;8.90;;;;;;;-8.80;100.00;96441.97;6169897;23;20096;-75
2023/02/10 02:42:28;;;;;;;17.25;8.70;;;;;;;-8.88;100.00;96436.22;6170537;23;20041;-75
2023/02/10 02:45:15;;;;;;;15.10;8.80;;;;;;;-8.87;100.00;96428.69;6170443;23;20099;-75
2023/02/10 02:47:43;;;;;;;16.55;9.20;;;;;;;-9.01;100.00;96422.16;6169788;23;20856;-74
2023/02/10 02:50:15;;;;;;;21.03;10.00;;;;;;;-9.08;100.00;96423.09;6170525;23;20040;-73
2023/02/10 02:52:49;;;;;;;16.42;9.85;;;;;;;-9.14;100.00;96422.31;6171388;23;20017;-74
2023/02/10 02:55:45;;;;;;;20.08;9.90;;;;;;;-9.26;100.00;96424.13;6170866;23;20458;-73
2023/02/10 02:58:13;;;;;;;16.02;9.48;;;;;;;-9.27;100.00;96418.28;6170351;23;20036;-74
2023/02/10 03:00:40;;;;;;;13.32;9.02;;;;;;;-9.51;100.00;96416.03;6171450;23;20036;-74
2023/02/10 03:03:06;;;;;;;19.23;9.25;;;;;;;-9.57;100.00;96418.59;6170035;23;20043;-76
2023/02/10 03:05:32;;;;;;;15.55;8.13;;;;;;;-9.49;100.00;96416.84;6171954;23;20005;-74
2023/02/10 03:07:58;;;;;;;19.85;10.05;;;;;;;-9.50;100.00;96416.88;6168235;23;20041;-74
2023/02/10 03:10:23;;;;;;;16.38;9.98;;;;;;;-9.55;100.00;96416.91;6169334;23;20024;-74
2023/02/10 03:12:50;;;;;;;18.08;9.63;;;;;;;-9.53;100.00;96425.22;6170649;23;20012;-74
2023/02/10 03:15:15;;;;;;;15.70;9.63;;;;;;;-9.48;100.00;96426.03;6170790;23;20009;-74
2023/02/10 03:17:41;;;;;;;18.25;9.80;;;;;;;-9.56;100.00;96427.75;6170354;23;20086;-76
2023/02/10 03:20:07;;;;;;;16.77;9.55;;;;;;;-9.16;100.00;96426.50;6168511;23;20422;-76
2023/02/10 03:22:32;;;;;;;20.10;11.23;;;;;;;-9.22;100.00;96430.75;6170894;23;20009;-76
2023/02/10 03:24:58;;;;;;;15.90;9.98;;;;;;;-8.95;100.00;96432.13;6168061;23;20080;-75
2023/02/10 03:27:23;;;;;;;18.00;9.77;;;;;;;-8.73;100.00;96429.31;6170039;23;20009;-76
2023/02/10 03:29:49;;;;;;;12.93;8.55;;;;;;;-8.81;100.00;96417.75;6169794;23;20005;-76
2023/02/10 03:32:16;;;;;;;19.70;9.23;;;;;;;-8.93;100.00;96418.72;6170101;23;20450;-76
2023/02/10 03:34:42;;;;;;;16.90;9.18;;;;;;;-8.52;100.00;96417.34;6169704;23;20084;-74
2023/02/10 03:37:08;;;;;;;18.77;9.18;;;;;;;-8.53;100.00;96413.16;6170342;23;20140;-74
2023/02/10 03:39:33;;;;;;;16.33;8.85;;;;;;;-8.45;100.00;96413.91;6170844;23;20013;-74
2023/02/10 03:41:59;;;;;;;13.77;8.57;;;;;;;-8.32;100.00;96417.91;6169185;23;20031;-75
2023/02/10 03:44:24;;;;;;;20.17;8.77;;;;;;;-8.35;100.00;96402.91;6170915;23;20015;-75
2023/02/10 03:46:50;;;;;;;17.27;10.05;;;;;;;-8.69;100.00;96417.56;6169469;23;20087;-75
2023/02/10 03:49:15;;;;;;;14.98;8.63;;;;;;;-8.47;100.00;96408.91;6169832;23;20005;-74
2023/02/10 03:51:40;;;;;;;20.45;9.18;;;;;;;-8.47;100.00;96401.38;6170828;23;20091;-74
2023/02/10 03:54:06;;;;;;;17.35;9.32;;;;;;;-8.29;100.00;96410.34;6170327;23;20530;-74
2023/02/10 03:56:31;;;;;;;14.50;8.63;;;;;;;-8.23;100.00;96408.53;6171115;23;20005;-75
2023/02/10 03:59:00;;;;;;;15.05;9.05;;;;;;;-8.48;100.00;96412.28;6169824;23;20013;-74
2023/02/10 04:01:25;;;;;;;13.82;8.50;;;;;;;-8.77;100.00;96409.34;6169924;23;20115;-74
2023/02/10 04:03:51;;;;;;;17.70;10.10;;;;;;;-9.57;100.00;96413.59;6169588;23;20009;-75
2023/02/10 04:06:16;;;;;;;19.25;10.75;;;;;;;-9.53;100.00;96407.69;6170593;23;20005;-74
2023/02/10 04:08:42;;;;;;;17.85;10.35;;;;;;;-9.64;100.00;96406.97;6169366;23;20063;-74
2023/02/10 04:11:09;;;;;;;16.77;10.13;;;;;;;-9.63;100.00;96406.09;6169038;23;20428;-74
2023/02/10 04:13:35;;;;;;;19.38;10.15;;;;;;;-9.76;100.00;96407.91;6168727;23;20490;-75
2023/02/10 04:16:08;;;;;;;19.27;10.20;;;;;;;-9.82;100.00;96405.44;6168779;23;20001;-74
2023/02/10 04:18:34;;;;;;;17.65;10.32;;;;;;;-9.91;100.00;96402.19;6171107;23;20136;-74
2023/02/10 04:21:01;;;;;;;20.13;12.75;;;;;;;-10.09;100.00;96405.69;6169494;23;20044;-73
2023/02/10 04:23:27;;;;;;;21.27;11.88;;;;;;;-9.96;100.00;96399.75;6170604;23;20683;-73
2023/02/10 04:25:52;;;;;;;27.42;13.18;;;;;;;-9.84;100.00;96408.81;6170163;23;20128;-74
2023/02/10 04:28:19;;;;;;;21.75;11.73;;;;;;;-9.84;100.00;96408.81;6169992;23;19997;-74
2023/02/10 04:30:44;;;;;;;22.13;11.90;;;;;;;-9.86;100.00;96403.00;6170009;23;20001;-73
2023/02/10 04:33:09;;;;;;;23.45;11.85;;;;;;;-9.88;100.00;96407.19;6169988;23;20012;-74
2023/02/10 04:35:35;;;;;;;22.25;11.82;;;;;;;-9.95;100.00;96408.09;6169369;23;20016;-74
2023/02/10 04:38:03;;;;;;;20.00;11.93;;;;;;;-9.98;100.00;96410.59;6171893;23;20490;-74
2023/02/10 04:40:31;;;;;;;21.88;13.02;;;;;;;-10.38;100.00;96410.13;6172147;23;20074;-73
2023/02/10 04:42:57;;;;;;;25.08;12.75;;;;;;;-10.25;100.00;96417.53;6169325;23;20092;-73
2023/02/10 04:45:22;;;;;;;26.85;12.73;;;;;;;-10.22;100.00;96417.53;6170128;23;20135;-73
2023/02/10 04:47:48;;;;;;;59.33;25.23;;;;;;;-10.36;100.00;96416.78;6171505;23;20005;-76
2023/02/10 04:50:13;;;;;;;94.53;36.63;;;;;;;-10.14;100.00;96412.44;6171595;23;20488;-74
2023/02/10 04:52:38;;;;;;;103.90;41.95;;;;;;;-10.13;100.00;96409.06;6170891;23;20005;-74
2023/02/10 04:55:04;;;;;;;105.88;42.28;;;;;;;-10.21;100.00;96419.16;6170810;23;20047;-73
2023/02/10 04:57:29;;;;;;;49.67;22.10;;;;;;;-10.24;100.00;96418.38;6172315;23;20009;-73
2023/02/10 04:59:55;;;;;;;129.85;45.75;;;;;;;-10.34;100.00;96416.78;6171302;23;20009;-73
2023/02/10 05:02:20;;;;;;;155.43;52.40;;;;;;;-10.29;100.00;96417.56;6172486;23;20507;-74
2023/02/10 05:04:46;;;;;;;77.55;32.55;;;;;;;-10.40;100.00;96419.31;6171520;23;20005;-74
2023/02/10 05:07:11;;;;;;;75.53;32.50;;;;;;;-10.41;100.00;96433.50;6172581;23;20005;-73
2023/02/10 05:09:37;;;;;;;102.53;42.22;;;;;;;-10.42;100.00;96426.81;6171625;23;20009;-73
2023/02/10 05:12:02;;;;;;;192.57;74.55;;;;;;;-10.34;100.00;96426.78;6171498;23;20013;-73
2023/02/10 05:14:28;;;;;;;98.57;40.30;;;;;;;-10.32;100.00;96427.59;6171041;23;20317;-74
2023/02/10 05:16:53;;;;;;;57.88;26.63;;;;;;;-10.44;100.00;96421.00;6171146;23;20435;-74
2023/02/10 05:19:18;;;;;;;60.83;27.55;;;;;;;-10.36;100.00;96430.94;6171788;23;20351;-73
2023/02/10 05:21:44;;;;;;;44.45;20.08;;;;;;;-10.41;100.00;96432.66;6170217;23;20009;-74
2023/02/10 05:24:09;;;;;;;36.90;19.33;;;;;;;-10.41;100.00;96436.00;6171840;23;20004;-74
2023/02/10 05:26:35;;;;;;;35.00;18.67;;;;;;;-10.49;100.00;96442.72;6171912;23;20028;-74
2023/02/10 05:29:00;;;;;;;26.77;13.73;;;;;;;-10.69;100.00;96449.50;6169041;23;20005;-74
2023/02/10 05:31:25;;;;;;;35.95;19.67;;;;;;;-10.65;100.00;96451.13;6171683;23;20009;-74
2023/02/10 05:33:53;;;;;;;31.98;15.77;;;;;;;-10.68;100.00;96457.81;6171423;23;20012;-73
2023/02/10 05:36:18;;;;;;;26.00;13.77;;;;;;;-10.67;100.00;96457.81;6172204;23;20001;-74
2023/02/10 05:39:22;;;;;;;28.63;13.57;;;;;;;-10.52;100.00;96450.22;6170802;23;20064;-74
2023/02/10 05:41:29;;;;;;;33.53;13.93;;;;;;;-10.47;100.00;96456.06;6171602;23;20029;-75
2023/02/10 05:43:55;;;;;;;30.45;14.13;;;;;;;-10.50;100.00;96437.72;6171088;23;20092;-73
2023/02/10 05:46:20;;;;;;;30.15;13.20;;;;;;;-10.19;100.00;96460.03;6172032;23;20011;-73
2023/02/10 05:48:46;;;;;;;29.73;13.32;;;;;;;-9.77;100.00;96473.06;6170744;23;20041;-74
2023/02/10 05:51:11;;;;;;;28.55;14.65;;;;;;;-9.45;100.00;96470.25;6170168;23;20628;-73
2023/02/10 05:53:36;;;;;;;33.72;16.63;;;;;;;-9.78;100.00;96468.88;6171161;23;20008;-73
2023/02/10 05:56:02;;;;;;;27.52;15.30;;;;;;;-9.85;100.00;96473.09;6170578;23;20534;-73
2023/02/10 05:58:27;;;;;;;28.40;15.85;;;;;;;-9.41;100.00;96470.25;6170656;23;20012;-73
2023/02/10 06:00:53;;;;;;;40.15;17.45;;;;;;;-9.17;100.00;96467.47;6169359;23;20020;-73
2023/02/10 06:03:18;;;;;;;43.20;19.50;;;;;;;-9.25;100.00;96466.72;6169293;23;20879;-74
2023/02/10 06:05:45;;;;;;;25.65;14.10;;;;;;;-9.63;100.00;96471.25;6169641;23;20631;-74
2023/02/10 06:08:10;;;;;;;26.80;13.85;;;;;;;-9.62;100.00;96481.25;6170727;23;20012;-74
2023/02/10 06:10:36;;;;;;;26.80;15.13;;;;;;;-8.10;100.00;96480.34;6169674;23;20005;-73
2023/02/10 06:13:01;;;;;;;28.60;15.95;;;;;;;-7.81;97.46;96482.41;6169074;23;20001;-74
2023/02/10 06:15:27;;;;;;;34.13;18.70;;;;;;;-7.37;94.35;96474.16;6171006;23;20013;-74
2023/02/10 06:17:52;;;;;;;22.85;13.80;;;;;;;-6.57;92.05;96474.31;6170081;23;20628;-74
2023/02/10 06:20:18;;;;;;;22.10;13.10;;;;;;;-6.26;89.12;96475.34;6170992;23;20439;-73
2023/02/10 06:22:43;;;;;;;31.92;15.05;;;;;;;-5.77;87.15;96476.75;6170444;23;20038;-74
2023/02/10 06:25:09;;;;;;;25.85;15.38;;;;;;;-6.27;86.08;96483.78;6170007;23;20856;-74
2023/02/10 06:27:34;;;;;;;34.05;17.02;;;;;;;-5.70;86.58;96483.31;6171725;23;20012;-74
2023/02/10 06:29:59;;;;;;;34.10;17.75;;;;;;;-5.73;85.04;96484.22;6170715;23;20005;-74
2023/02/10 06:32:25;;;;;;;33.80;19.58;;;;;;;-5.74;85.57;96489.28;6171871;23;20016;-74
2023/02/10 06:34:50;;;;;;;30.48;19.08;;;;;;;-5.20;84.76;96485.44;6170039;23;20009;-73
2023/02/10 06:37:16;;;;;;;29.60;17.80;;;;;;;-3.91;78.62;96487.75;6168730;23;20001;-74
2023/02/10 06:39:41;;;;;;;28.10;19.30;;;;;;;-3.44;75.25;96488.00;6167166;23;20013;-74
2023/02/10 06:42:06;;;;;;;37.47;22.38;;;;;;;-3.68;77.36;96499.69;6168986;23;20092;-74
2023/02/10 06:44:32;;;;;;;25.63;17.77;;;;;;;-2.48;70.00;96498.25;6169570;23;20041;-75
2023/02/10 06:46:57;;;;;;;31.67;19.90;;;;;;;-2.15;61.36;96494.50;6169806;23;20013;-75
2023/02/10 06:49:23;;;;;;;26.00;17.38;;;;;;;-2.46;62.49;96494.78;6169619;23;20017;-74
2023/02/10 06:51:48;;;;;;;24.30;16.35;;;;;;;-3.56;68.68;96501.03;6169209;23;20008;-74
2023/02/10 06:54:14;;;;;;;24.63;16.48;;;;;;;-1.95;65.02;96497.13;6170594;23;20724;-74
2023/02/10 06:56:39;;;;;;;26.45;15.70;;;;;;;0.18;53.03;96497.56;6170986;23;20504;-77
2023/02/10 06:59:05;;;;;;;19.17;13.73;;;;;;;-0.26;53.75;96496.16;6167447;23;20005;-78
2023/02/10 07:01:30;;;;;;;23.83;15.70;;;;;;;-0.05;53.28;96497.75;6169471;23;20367;-77
2023/02/10 07:03:56;;;;;;;24.75;15.80;;;;;;;0.98;50.59;96498.84;6170109;23;20351;-77
2023/02/10 07:06:21;;;;;;;20.38;15.95;;;;;;;1.62;48.68;96497.34;6170664;23;20950;-78
2023/02/10 07:08:47;;;;;;;26.52;16.75;;;;;;;4.44;42.77;96492.31;6171069;23;20061;-78
2023/02/10 07:11:12;;;;;;;26.40;18.88;;;;;;;4.19;41.80;96485.31;6172350;23;20255;-76
2023/02/10 07:13:38;;;;;;;28.55;21.88;;;;;;;2.83;44.58;96480.56;6171039;23;20420;-77
2023/02/10 07:16:03;;;;;;;41.60;28.75;;;;;;;4.48;42.18;96491.19;6171910;23;20088;-78
2023/02/10 07:18:29;;;;;;;25.73;17.42;;;;;;;5.82;39.63;96482.34;6170205;23;20056;-78
2023/02/10 07:20:55;;;;;;;21.77;17.17;;;;;;;5.11;40.61;96486.28;6172514;23;20035;-78
2023/02/10 07:23:21;;;;;;;22.13;17.00;;;;;;;2.95;44.30;96487.56;6173151;23;20011;-79
2023/02/10 07:25:46;;;;;;;21.20;16.23;;;;;;;1.95;47.96;96486.25;6172499;23;20005;-78
2023/02/10 07:28:12;;;;;;;20.92;16.25;;;;;;;1.47;50.08;96483.66;6172438;23;20012;-78
2023/02/10 07:30:38;;;;;;;19.90;15.20;;;;;;;1.51;50.51;96480.03;6173408;23;20013;-78
2023/02/10 07:33:03;;;;;;;21.17;15.32;;;;;;;1.35;51.25;96485.06;6171201;23;20135;-78
2023/02/10 07:35:29;;;;;;;20.33;15.50;;;;;;;1.02;53.11;96486.75;6172176;23;20021;-76
2023/02/10 07:37:54;;;;;;;25.02;15.52;;;;;;;1.08;52.57;96491.56;6171022;23;20062;-76
2023/02/10 07:40:21;;;;;;;19.70;14.77;;;;;;;0.42;54.50;96493.88;6168722;23;20012;-77
2023/02/10 07:42:46;;;;;;;21.33;13.88;;;;;;;0.69;53.92;96486.66;6170202;23;20005;-78
2023/02/10 07:45:12;;;;;;;16.73;13.65;;;;;;;3.49;46.56;96481.03;6170968;23;20005;-75
2023/02/10 07:47:37;;;;;;;17.23;13.45;;;;;;;2.31;47.09;96462.19;6170253;23;20480;-78
2023/02/10 07:50:03;;;;;;;19.38;13.45;;;;;;;1.33;49.53;96479.25;6168985;23;20352;-76
2023/02/10 07:52:29;;;;;;;26.58;15.70;;;;;;;2.79;47.46;96472.28;6170666;23;20005;-78
2023/02/10 07:54:55;;;;;;;19.80;14.82;;;;;;;4.95;42.60;96472.78;6169890;23;20001;-78
2023/02/10 07:57:21;;;;;;;22.88;15.88;;;;;;;6.29;40.09;96470.59;6171020;23;20352;-78
2023/02/10 07:59:46;;;;;;;25.80;16.75;;;;;;;5.24;41.15;96469.97;6170139;23;20005;-75
2023/02/10 08:02:12;;;;;;;20.95;17.05;;;;;;;5.49;41.22;96473.53;6168835;23;20001;-77
2023/02/10 08:04:37;;;;;;;26.70;18.70;;;;;;;6.20;40.40;96471.19;6168800;23;20032;-77
2023/02/10 08:07:03;;;;;;;27.25;18.70;;;;;;;7.28;38.33;96472.00;6167387;23;20013;-75
2023/02/10 08:09:28;;;;;;;24.48;18.90;;;;;;;7.50;38.04;96469.47;6168264;23;20375;-75
2023/02/10 08:11:54;;;;;;;24.70;18.48;;;;;;;8.79;35.15;96462.88;6167478;23;20005;-76
2023/02/10 08:14:19;;;;;;;26.27;19.58;;;;;;;8.64;34.77;96469.22;6167471;23;20011;-76
2023/02/10 08:16:45;;;;;;;23.98;19.15;;;;;;;9.17;34.42;96466.72;6165982;23;20106;-76
2023/02/10 08:19:10;;;;;;;24.48;19.25;;;;;;;8.08;35.64;96468.47;6168058;23;20013;-78
2023/02/10 08:21:36;;;;;;;23.13;19.42;;;;;;;8.49;35.26;96460.13;6169343;23;20482;-76
2023/02/10 08:24:01;;;;;;;24.15;19.27;;;;;;;8.43;35.06;96458.03;6163452;23;19997;-75
2023/02/10 08:26:27;;;;;;;26.17;19.95;;;;;;;9.70;33.78;96454.53;6169162;23;20367;-79
2023/02/10 08:28:54;;;;;;;24.52;19.50;;;;;;;8.84;33.86;96455.56;6167769;23;20012;-79
2023/02/10 08:31:20;;;;;;;24.92;18.73;;;;;;;8.36;36.23;96455.09;6167370;23;20001;-78
2023/02/10 08:33:46;;;;;;;22.67;19.40;;;;;;;7.46;36.06;96450.00;6167778;23;20009;-78
2023/02/10 08:36:13;;;;;;;20.75;17.85;;;;;;;8.21;35.97;96450.28;6166703;23;20012;-74
2023/02/10 08:38:40;;;;;;;21.65;17.27;;;;;;;8.38;35.85;96452.41;6168108;23;20828;-78
2023/02/10 08:41:06;;;;;;;19.60;17.13;;;;;;;9.60;33.74;96451.88;6167217;23;20021;-74
2023/02/10 08:43:32;;;;;;;24.67;17.42;;;;;;;10.41;32.64;96454.47;6168404;23;20530;-75
2023/02/10 08:45:59;;;;;;;20.50;16.83;;;;;;;10.48;32.72;96449.56;6167226;23;20414;-74
2023/02/10 08:48:25;;;;;;;19.38;17.08;;;;;;;9.71;33.66;96448.41;6166876;23;20064;-77
2023/02/10 08:50:50;;;;;;;19.75;15.80;;;;;;;10.33;32.61;96449.13;6160903;23;20032;-78
2023/02/10 08:53:16;;;;;;;19.85;16.63;;;;;;;7.86;35.50;96448.66;6159093;23;20908;-77
2023/02/10 08:55:42;;;;;;;20.42;15.77;;;;;;;8.17;35.05;96454.03;6166584;23;20040;-77
2023/02/10 08:58:07;;;;;;;17.33;15.18;;;;;;;9.21;33.74;96439.69;6167104;23;20013;-77
2023/02/10 09:00:33;;;;;;;20.50;16.08;;;;;;;5.83;37.67;96452.31;6168698;23;20517;-77
2023/02/10 09:02:59;;;;;;;19.80;15.68;;;;;;;7.53;36.40;96448.63;6165567;23;20009;-78
2023/02/10 09:05:25;;;;;;;20.48;15.68;;;;;;;8.16;35.49;96445.47;6165936;23;20371;-78
2023/02/10 09:07:51;;;;;;;19.17;15.55;;;;;;;8.68;34.96;96449.16;6167179;23;20096;-78
2023/02/10 09:10:16;;;;;;;17.42;13.88;;;;;;;7.70;35.75;96448.19;6167947;23;20046;-77
2023/02/10 09:12:43;;;;;;;14.68;13.10;;;;;;;7.41;36.04;96449.53;6166978;23;20009;-78
2023/02/10 09:15:08;;;;;;;13.93;12.35;;;;;;;9.48;32.61;96438.22;6168461;23;20060;-78
2023/02/10 09:17:34;;;;;;;14.77;12.88;;;;;;;9.66;32.64;96430.72;6166960;23;20009;-77
2023/02/10 09:19:59;;;;;;;16.90;13.07;;;;;;;9.79;33.54;96431.28;6167157;23;20713;-76
2023/02/10 09:22:25;;;;;;;16.02;13.07;;;;;;;9.78;32.46;96434.84;6168504;23;20392;-78
2023/02/10 09:24:52;;;;;;;14.85;13.25;;;;;;;8.26;34.34;96441.22;6169702;23;20039;-78
2023/02/10 09:27:18;;;;;;;14.93;13.38;;;;;;;8.64;33.90;96434.84;6170293;23;20074;-76
2023/02/10 09:29:43;;;;;;;15.95;12.60;;;;;;;8.56;34.17;96432.88;6170620;23;20043;-79
2023/02/10 09:32:09;;;;;;;17.13;12.85;;;;;;;9.14;32.68;96428.19;6170770;23;20431;-79
2023/02/10 09:34:34;;;;;;;14.00;12.55;;;;;;;9.58;33.06;96421.94;6169891;23;20067;-82
2023/02/10 09:37:02;;;;;;;14.25;12.75;;;;;;;10.32;32.71;96418.19;6171269;23;20020;-81
2023/02/10 09:39:28;;;;;;;15.25;12.18;;;;;;;10.34;32.72;96421.47;6169595;23;20071;-80
2023/02/10 09:42:08;;;;;;;16.02;12.30;;;;;;;10.52;32.12;96417.28;6168536;23;20033;-80
2023/02/10 09:44:35;;;;;;;15.20;13.50;;;;;;;9.40;33.09;96409.59;6167768;23;20017;-81
2023/02/10 09:47:19;;;;;;;16.70;12.45;;;;;;;9.50;33.68;96412.25;6167333;23;20005;-81
2023/02/10 09:50:04;;;;;;;14.15;12.65;;;;;;;9.60;33.94;96405.34;6167593;23;20048;-79
2023/02/10 09:52:36;;;;;;;14.55;13.07;;;;;;;9.89;34.09;96402.88;6169295;23;20013;-79
2023/02/10 09:55:09;;;;;;;15.18;13.32;;;;;;;10.11;34.16;96404.47;6167914;23;20005;-77
2023/02/10 09:57:42;;;;;;;15.77;14.18;;;;;;;10.86;33.49;96397.78;6165459;23;20299;-77
2023/02/10 10:00:34;;;;;;;14.18;12.68;;;;;;;10.62;33.33;96392.19;6170443;23;20013;-79
2023/02/10 10:03:03;;;;;;;16.17;13.32;;;;;;;9.96;34.00;96391.06;6170031;23;20447;-79
2023/02/10 10:05:47;;;;;;;14.23;12.13;;;;;;;10.40;33.59;96376.91;6167197;23;20016;-79
2023/02/10 10:08:48;;;;;;;12.77;11.48;;;;;;;10.65;33.65;96378.16;6169121;23;20039;-78
2023/02/10 10:11:24;;;;;;;11.70;10.60;;;;;;;10.17;33.21;96372.91;6155970;23;20019;-80
2023/02/10 10:13:51;;;;;;;11.15;10.05;;;;;;;10.82;33.01;96369.72;6168224;23;20009;-78
2023/02/10 10:16:24;;;;;;;10.07;9.18;;;;;;;10.14;32.37;96365.41;6168737;23;20005;-79
2023/02/10 10:18:56;;;;;;;11.23;10.02;;;;;;;10.61;32.18;96362.06;6168674;23;20012;-81
2023/02/10 10:21:30;;;;;;;11.00;9.93;;;;;;;10.88;32.29;96364.81;6169919;23;20013;-79
2023/02/10 10:24:14;;;;;;;10.75;9.75;;;;;;;11.07;32.02;96357.00;6169430;23;20013;-78
2023/02/10 10:27:10;;;;;;;13.25;11.23;;;;;;;11.45;31.78;96356.09;6171384;23;20017;-75
2023/02/10 10:29:53;;;;;;;12.98;11.43;;;;;;;11.59;32.96;96349.63;6169104;23;20013;-78
2023/02/10 10:32:35;;;;;;;15.05;12.10;;;;;;;11.65;31.90;96349.06;6173018;23;20005;-82
2023/02/10 10:35:03;;;;;;;21.20;11.93;;;;;;;6.82;39.69;96358.66;6181132;23;20375;-80
2023/02/10 10:37:28;;;;;;;16.25;11.55;;;;;;;5.48;43.45;96356.25;6191187;23;20005;-80
2023/02/10 10:39:59;;;;;;;16.52;12.50;;;;;;;5.37;43.23;96351.84;6186264;23;20025;-81
2023/02/10 10:42:59;;;;;;;14.05;11.73;;;;;;;5.04;43.31;96351.56;6175877;23;20032;-80
2023/02/10 10:45:38;;;;;;;16.23;11.80;;;;;;;5.24;43.89;96354.44;6184727;23;20020;-79
2023/02/10 10:48:07;;;;;;;;;;;;;;;4.78;44.70;96348.97;6186619;23;20020;-78
2023/02/10 10:50:32;;;;;;;16.73;12.18;;;;;;;4.36;45.81;96349.19;6180609;23;19912;-78
2023/02/10 10:53:00;;;;;;;18.90;13.15;;;;;;;4.68;45.97;96342.81;6175714;23;20016;-81
2023/02/10 10:55:41;;;;;;;16.67;11.57;;;;;;;4.73;43.51;96345.88;6178500;23;20011;-77
2023/02/10 10:58:28;;;;;;;14.10;10.13;;;;;;;4.46;42.91;96314.34;6173838;23;20355;-77
2023/02/10 11:00:57;;;;;;;11.80;8.70;;;;;;;4.80;42.83;96333.47;6171456;23;20009;-79
2023/02/10 11:03:23;;;;;;;10.73;7.65;;;;;;;4.25;43.68;96331.09;6176811;23;20506;-75
2023/02/10 11:06:14;;;;;;;8.00;7.20;;;;;;;4.28;43.14;96328.34;6175142;23;20037;-79
2023/02/10 11:08:42;;;;;;;7.60;6.90;;;;;;;4.27;43.15;96331.81;6176920;23;20032;-79
2023/02/10 11:11:11;;;;;;;8.05;6.13;;;;;;;3.99;42.01;96326.81;6168832;23;20036;-78
2023/02/10 11:13:39;;;;;;;9.60;8.57;;;;;;;3.99;44.33;96316.56;6171533;23;20355;-77
2023/02/10 11:16:06;;;;;;;10.07;8.35;;;;;;;4.21;44.69;96316.84;6170287;23;20506;-78
2023/02/10 11:18:32;;;;;;;11.93;8.35;;;;;;;3.84;44.19;96314.97;6170014;23;20157;-78
2023/02/10 11:21:06;;;;;;;11.88;8.90;;;;;;;3.90;45.14;96312.84;6173976;23;20439;-78
2023/02/10 11:23:36;;;;;;;11.85;9.50;;;;;;;3.71;45.98;96313.19;6173038;23;20013;-77
2023/02/10 11:26:06;;;;;;;11.85;9.40;;;;;;;3.85;45.35;96319.19;6170970;23;20104;-77